Time;durP1;ratioP1;P1;durP2;ratioP2;P2;SDS_P1;SDS_P2;PMS_P1;PMS_P2;Temp;Humidity;BMP_temperature;BMP_pressure;BME280_temperature;BME280_humidity;BME280_pressure;Samples;Min_cycle;Max_cycle;Signal;HPM_P1;HPM_P2
2022/06/02 00:00:19;;;;;;;12.25;6.90;;;10.60;99.90;;;;;;4975054;28;20133;-83
2022/06/02 00:03:22;;;;;;;11.65;6.43;;;10.60;99.90;;;;;;4959843;28;20547;-84
2022/06/02 00:05:51;;;;;;;13.13;6.88;;;10.50;99.90;;;;;;4975784;28;20038;-83
2022/06/02 00:08:44;;;;;;;12.30;7.07;;;10.50;99.90;;;;;;4974710;28;20496;-83
2022/06/02 00:11:19;;;;;;;15.40;8.13;;;10.50;99.90;;;;;;4975420;28;20050;-83
2022/06/02 00:13:54;;;;;;;14.65;7.97;;;10.50;99.90;;;;;;4975385;28;20053;-83
2022/06/02 00:16:29;;;;;;;11.25;7.13;;;10.50;99.90;;;;;;4975355;28;20061;-83
2022/06/02 00:19:22;;;;;;;11.55;7.07;;;10.50;99.90;;;;;;4974779;28;20512;-83
2022/06/02 00:21:57;;;;;;;12.23;7.85;;;10.40;99.90;;;;;;4975289;28;20050;-83
2022/06/02 00:24:39;;;;;;;10.35;6.35;;;10.40;99.90;;;;;;4975061;28;20399;-83
2022/06/02 00:27:10;;;;;;;10.80;6.35;;;10.40;99.90;;;;;;4975421;28;20046;-83
2022/06/02 00:29:48;;;;;;;11.30;7.22;;;10.40;99.90;;;;;;4974758;28;20038;-83
2022/06/02 00:32:31;;;;;;;22.83;6.32;;;10.40;99.90;;;;;;4974627;28;20042;-83
2022/06/02 00:35:15;;;;;;;11.65;6.65;;;10.30;99.90;;;;;;4975081;28;20478;-84
2022/06/02 00:38:11;;;;;;;10.80;6.47;;;10.30;99.90;;;;;;4974192;28;20045;-83
2022/06/02 00:40:36;;;;;;;11.88;7.45;;;10.30;99.90;;;;;;4975034;28;20045;-82
2022/06/02 00:43:10;;;;;;;11.45;7.57;;;10.30;99.90;;;;;;4975074;28;20039;-83
2022/06/02 00:45:41;;;;;;;13.63;7.45;;;10.30;99.90;;;;;;4974620;28;20049;-82
2022/06/02 00:48:25;;;;;;;16.75;6.80;;;10.30;99.90;;;;;;4958630;28;20046;-83
2022/06/02 00:51:04;;;;;;;42.65;6.72;;;10.20;99.90;;;;;;4975173;28;20108;-82
2022/06/02 01:00:02;;;;;;;9.00;5.10;;;10.00;99.90;;;;;;4974462;28;20331;-82
2022/06/02 01:02:33;;;;;;;15.93;4.70;;;10.00;99.90;;;;;;4974732;28;20129;-82
2022/06/02 01:05:00;;;;;;;9.55;4.43;;;9.90;99.90;;;;;;4974742;28;20165;-82
2022/06/02 01:07:34;;;;;;;9.95;5.35;;;9.90;99.90;;;;;;4974349;28;20049;-82
2022/06/02 01:10:29;;;;;;;22.52;7.07;;;9.90;99.90;;;;;;4974962;28;20411;-82
2022/06/02 01:13:06;;;;;;;28.63;6.72;;;9.80;99.90;;;;;;4972115;28;20042;-82
2022/06/02 01:16:15;;;;;;;12.95;6.03;;;9.80;99.90;;;;;;4974453;28;20041;-82
2022/06/02 01:18:44;;;;;;;10.68;6.45;;;9.80;99.90;;;;;;4897038;29;20071;-82
2022/06/02 01:21:48;;;;;;;10.88;6.03;;;9.80;99.90;;;;;;4896973;29;20503;-82
2022/06/02 01:24:22;;;;;;;9.18;5.35;;;9.80;99.90;;;;;;4897063;29;20044;-82
2022/06/02 01:27:10;;;;;;;10.25;6.50;;;9.70;99.90;;;;;;4897293;29;20047;-82
2022/06/02 01:29:53;;;;;;;12.40;7.18;;;9.70;99.90;;;;;;4912353;29;20051;-82
2022/06/02 01:32:21;;;;;;;13.80;7.43;;;9.70;99.90;;;;;;4897499;29;20458;-82
2022/06/02 01:34:58;;;;;;;10.75;6.85;;;9.70;99.90;;;;;;4912881;29;20090;-82
2022/06/02 01:37:45;;;;;;;14.27;7.25;;;9.70;99.90;;;;;;4911880;29;20127;-82
2022/06/02 01:40:31;;;;;;;10.50;6.22;;;9.70;99.90;;;;;;4912666;29;20048;-82
2022/06/02 01:43:06;;;;;;;11.95;7.05;;;9.60;99.90;;;;;;4898685;29;20111;-82
2022/06/02 01:45:40;;;;;;;11.50;6.50;;;9.60;99.90;;;;;;4900207;29;20044;-82
2022/06/02 01:48:16;;;;;;;31.63;7.20;;;9.70;99.90;;;;;;4900075;29;20525;-82
2022/06/02 01:50:52;;;;;;;13.20;6.18;;;9.60;99.90;;;;;;4900509;29;20056;-82
2022/06/02 01:54:00;;;;;;;28.08;6.40;;;9.60;99.90;;;;;;4923035;28;20075;-82
2022/06/02 01:56:52;;;;;;;18.65;4.38;;;9.60;99.90;;;;;;4978234;28;20038;-82
2022/06/02 01:59:33;;;;;;;10.80;6.22;;;9.50;99.90;;;;;;4977203;28;20578;-82
2022/06/02 02:02:07;;;;;;;53.15;7.57;;;9.50;99.90;;;;;;4977691;28;20042;-82
2022/06/02 02:04:51;;;;;;;19.63;5.32;;;9.50;99.90;;;;;;4977685;28;20038;-83
2022/06/02 02:07:42;;;;;;;42.10;6.22;;;9.40;99.90;;;;;;4977662;28;20034;-82
2022/06/02 02:10:24;;;;;;;11.25;6.55;;;9.30;99.90;;;;;;4977796;28;20077;-82
2022/06/02 02:13:16;;;;;;;7.93;3.88;;;9.30;99.90;;;;;;4961581;28;20042;-82
2022/06/02 02:15:45;;;;;;;6.85;3.25;;;9.30;99.90;;;;;;4977518;28;20046;-82
2022/06/02 02:18:25;;;;;;;7.50;3.80;;;9.20;99.90;;;;;;4977035;28;20046;-82
2022/06/02 02:20:56;;;;;;;7.70;4.15;;;9.20;99.90;;;;;;4960759;28;20045;-82
2022/06/02 02:23:56;;;;;;;9.73;5.80;;;9.20;99.90;;;;;;4977734;28;20060;-82
2022/06/02 02:26:33;;;;;;;9.02;5.00;;;9.20;99.90;;;;;;4977335;28;20095;-82
2022/06/02 02:29:34;;;;;;;9.52;4.97;;;9.10;99.90;;;;;;4960684;28;20154;-82
2022/06/02 02:32:41;;;;;;;10.10;5.25;;;9.20;99.90;;;;;;4947602;28;20089;-82
2022/06/02 02:35:21;;;;;;;11.88;6.68;;;9.10;99.90;;;;;;4977260;28;20412;-82
2022/06/02 02:38:16;;;;;;;10.55;6.05;;;9.10;99.90;;;;;;4976201;28;20050;-82
2022/06/02 02:40:44;;;;;;;11.88;5.45;;;9.10;99.90;;;;;;4961094;28;20046;-82
2022/06/02 02:43:19;;;;;;;40.10;6.03;;;9.10;99.90;;;;;;4976730;28;20081;-82
2022/06/02 02:45:57;;;;;;;7.43;3.90;;;9.00;99.90;;;;;;4977151;28;20049;-82
2022/06/02 02:48:29;;;;;;;6.78;3.05;;;9.00;99.90;;;;;;4976820;28;20452;-82
2022/06/02 02:51:07;;;;;;;7.38;3.92;;;9.00;99.90;;;;;;4976648;28;20046;-81
2022/06/02 02:54:07;;;;;;;8.07;3.83;;;9.00;99.90;;;;;;4976907;28;20042;-82
2022/06/02 02:56:47;;;;;;;6.07;2.60;;;8.90;99.90;;;;;;4960850;28;20410;-82
2022/06/02 02:59:17;;;;;;;6.78;3.10;;;8.90;99.90;;;;;;4960156;28;20488;-82
2022/06/02 03:02:04;;;;;;;8.15;3.13;;;8.90;99.90;;;;;;4976658;28;20038;-82
2022/06/02 03:04:52;;;;;;;6.53;2.75;;;8.80;99.90;;;;;;4976826;28;20400;-82
2022/06/02 03:07:18;;;;;;;7.13;2.72;;;8.80;99.90;;;;;;4960291;28;20054;-81
2022/06/02 03:10:04;;;;;;;5.50;2.58;;;8.80;99.90;;;;;;4960254;28;20177;-81
2022/06/02 03:13:00;;;;;;;6.90;3.03;;;8.70;99.90;;;;;;4976427;28;20034;-82
2022/06/02 03:15:37;;;;;;;6.53;3.03;;;8.70;99.90;;;;;;4971592;28;20492;-82
2022/06/02 03:18:11;;;;;;;7.47;3.88;;;8.70;99.90;;;;;;4976166;28;20093;-82
2022/06/02 03:20:43;;;;;;;8.20;4.18;;;8.70;99.90;;;;;;4975970;28;20047;-82
2022/06/02 03:23:42;;;;;;;8.40;4.50;;;8.70;99.90;;;;;;4976630;28;20141;-82
2022/06/02 03:26:29;;;;;;;8.75;4.63;;;8.70;99.90;;;;;;4976333;28;20034;-82
2022/06/02 03:29:03;;;;;;;9.18;5.22;;;8.70;99.90;;;;;;4976087;28;20400;-82
2022/06/02 03:31:59;;;;;;;10.15;5.82;;;8.70;99.90;;;;;;4976657;28;20050;-82
2022/06/02 03:34:53;;;;;;;16.88;4.53;;;8.60;99.90;;;;;;4976099;28;20042;-82
2022/06/02 03:37:56;;;;;;;155.52;7.65;;;8.60;99.90;;;;;;4959637;28;20138;-82
2022/06/02 03:40:43;;;;;;;48.40;6.57;;;8.60;99.90;;;;;;4975938;28;20042;-82
2022/06/02 03:43:37;;;;;;;31.83;5.70;;;8.50;99.90;;;;;;4975662;28;20049;-82
2022/06/02 03:46:27;;;;;;;17.10;6.75;;;8.50;99.90;;;;;;4960163;28;20092;-82
2022/06/02 03:49:10;;;;;;;12.70;6.95;;;8.50;99.90;;;;;;4975345;28;20030;-82
2022/06/02 03:51:50;;;;;;;11.25;5.45;;;8.50;99.90;;;;;;4959611;28;20400;-81
2022/06/02 03:54:40;;;;;;;11.35;6.28;;;8.60;99.90;;;;;;4976060;28;20042;-82
2022/06/02 03:57:33;;;;;;;14.02;8.63;;;8.60;99.90;;;;;;4975666;28;20073;-82
2022/06/02 04:00:14;;;;;;;14.18;8.00;;;8.60;99.90;;;;;;4959319;28;20077;-82
2022/06/02 04:03:04;;;;;;;13.02;8.23;;;8.70;99.90;;;;;;4975585;28;20080;-81
2022/06/02 04:06:13;;;;;;;13.77;7.90;;;8.70;99.90;;;;;;4975019;28;20046;-81
2022/06/02 04:09:14;;;;;;;11.93;6.65;;;8.70;99.90;;;;;;4897735;29;20050;-82
2022/06/02 04:15:29;;;;;;;14.40;8.05;;;8.80;99.90;;;;;;4897906;29;20055;-82
2022/06/02 04:18:11;;;;;;;14.50;7.85;;;8.80;99.90;;;;;;4913599;29;20166;-81
2022/06/02 04:20:58;;;;;;;14.53;8.90;;;8.80;99.90;;;;;;4913463;29;20055;-81
2022/06/02 04:23:51;;;;;;;13.50;8.10;;;8.80;99.90;;;;;;4882135;29;20048;-82
2022/06/02 04:26:49;;;;;;;13.65;7.88;;;8.80;99.90;;;;;;4897952;29;20096;-82
2022/06/02 04:29:51;;;;;;;14.20;8.32;;;8.90;99.90;;;;;;4897264;29;20526;-82
2022/06/02 04:32:35;;;;;;;13.47;8.10;;;8.90;99.90;;;;;;4897933;29;20048;-82
2022/06/02 04:35:15;;;;;;;14.65;9.10;;;8.90;99.90;;;;;;4897344;29;20058;-82
2022/06/02 04:38:14;;;;;;;14.80;8.75;;;8.80;99.90;;;;;;4897018;29;20055;-82
2022/06/02 04:41:13;;;;;;;15.07;9.52;;;8.90;99.90;;;;;;4971309;28;20050;-82
2022/06/02 04:44:13;;;;;;;14.23;9.00;;;8.90;99.90;;;;;;4974961;28;20484;-82
2022/06/02 04:46:59;;;;;;;16.10;9.82;;;8.90;99.90;;;;;;4974988;28;20034;-82
2022/06/02 04:49:40;;;;;;;15.02;9.48;;;8.90;99.90;;;;;;4974128;28;20125;-82
2022/06/02 04:52:14;;;;;;;17.60;11.10;;;9.00;99.90;;;;;;4958838;28;20049;-82
2022/06/02 04:55:10;;;;;;;16.20;10.10;;;9.00;99.90;;;;;;4974910;28;20053;-82
2022/06/02 04:57:43;;;;;;;19.92;11.90;;;9.10;99.90;;;;;;4958414;28;20451;-82
2022/06/02 05:00:18;;;;;;;;;;;9.10;99.90;;;;;;4959263;28;20046;-82
2022/06/02 05:03:05;;;;;;;23.05;11.02;;;9.20;99.90;;;;;;4974744;28;19925;-82
2022/06/02 05:06:18;;;;;;;16.58;11.20;;;9.20;99.90;;;;;;4974495;28;20050;-81
2022/06/02 05:09:14;;;;;;;18.25;11.15;;;9.30;99.90;;;;;;4915801;29;20066;-82
2022/06/02 05:12:13;;;;;;;18.58;11.93;;;9.40;99.90;;;;;;4900346;29;20056;-82
2022/06/02 05:15:18;;;;;;;20.02;12.13;;;9.40;99.90;;;;;;4916047;29;20047;-82
2022/06/02 05:18:06;;;;;;;20.13;12.68;;;9.50;99.90;;;;;;4916320;29;20056;-81
2022/06/02 05:20:56;;;;;;;18.92;12.43;;;9.60;99.90;;;;;;4919516;29;20048;-82
2022/06/02 05:23:46;;;;;;;21.38;13.23;;;9.70;99.90;;;;;;4904108;29;20131;-82
2022/06/02 05:26:30;;;;;;;17.85;11.93;;;9.80;99.90;;;;;;4919402;29;20050;-82
2022/06/02 05:29:14;;;;;;;20.23;12.93;;;9.90;99.90;;;;;;4919447;29;20094;-82
2022/06/02 05:31:58;;;;;;;24.17;12.93;;;9.90;99.90;;;;;;4919712;29;20516;-83
2022/06/02 05:35:05;;;;;;;19.05;12.65;;;10.00;99.90;;;;;;4903890;29;20108;-83
2022/06/02 05:37:52;;;;;;;17.77;11.57;;;10.10;99.90;;;;;;4919134;29;20605;-83
2022/06/02 05:41:01;;;;;;;21.15;13.93;;;10.20;99.90;;;;;;4919470;29;20044;-83
2022/06/02 05:43:32;;;;;;;18.42;12.90;;;10.30;99.90;;;;;;4920244;28;20055;-83
2022/06/02 05:46:23;;;;;;;19.88;13.68;;;10.40;99.90;;;;;;4978113;28;20377;-83
2022/06/02 05:49:16;;;;;;;19.05;12.63;;;10.50;99.90;;;;;;4977410;28;20408;-83
2022/06/02 05:51:52;;;;;;;;;;;10.50;99.90;;;;;;4978313;28;20101;-83
2022/06/02 05:54:34;;;;;;;18.42;11.63;;;10.60;99.90;;;;;;4961984;28;19917;-83
2022/06/02 05:57:19;;;;;;;18.45;11.57;;;10.70;99.90;;;;;;4977629;28;20038;-84
2022/06/02 06:00:05;;;;;;;18.83;12.70;;;10.70;99.90;;;;;;4995066;28;20077;-83
2022/06/02 06:02:49;;;;;;;19.08;12.82;;;10.80;99.90;;;;;;4977729;28;20058;-83
2022/06/02 06:05:21;;;;;;;17.70;11.45;;;10.90;99.90;;;;;;4977729;28;20038;-83
2022/06/02 06:08:11;;;;;;;19.15;12.05;;;11.00;99.90;;;;;;4977523;28;20042;-83
2022/06/02 06:11:19;;;;;;;17.73;11.77;;;11.10;99.90;;;;;;4977411;28;20470;-83
2022/06/02 06:13:51;;;;;;;17.90;12.38;;;11.20;99.90;;;;;;4977848;28;20038;-83
2022/06/02 06:16:28;;;;;;;15.05;9.45;;;11.30;99.90;;;;;;4977572;28;20050;-83
2022/06/02 06:19:24;;;;;;;19.85;17.95;;;11.30;99.90;;;;;;4976781;28;20042;-83
2022/06/02 06:22:22;;;;;;;15.20;10.38;;;11.50;99.90;;;;;;4977490;28;20182;-83
2022/06/02 06:25:11;;;;;;;15.52;10.10;;;11.60;99.90;;;;;;4969425;28;20052;-84
2022/06/02 06:28:01;;;;;;;15.20;10.48;;;11.70;99.90;;;;;;4977186;28;20034;-84
2022/06/02 06:30:42;;;;;;;16.52;9.93;;;11.70;99.90;;;;;;4976348;28;20050;-84
2022/06/02 06:33:33;;;;;;;13.27;9.23;;;11.80;99.90;;;;;;4976963;28;20043;-83
2022/06/02 06:36:15;;;;;;;12.38;8.10;;;11.90;99.90;;;;;;4961162;28;20038;-84
2022/06/02 06:38:53;;;;;;;13.52;9.18;;;12.00;99.90;;;;;;4976436;28;20050;-84
2022/06/02 06:41:42;;;;;;;12.50;7.70;;;12.10;99.90;;;;;;4976726;28;20038;-84
2022/06/02 06:44:24;;;;;;;13.00;8.07;;;12.20;99.90;;;;;;4961043;28;20048;-84
2022/06/02 06:47:02;;;;;;;11.52;7.63;;;12.30;99.90;;;;;;4977072;28;20042;-84
2022/06/02 06:49:54;;;;;;;15.10;7.28;;;12.30;99.90;;;;;;4976314;28;20038;-84
2022/06/02 06:52:38;;;;;;;11.70;7.32;;;12.40;99.90;;;;;;4977030;28;20129;-84
2022/06/02 06:55:22;;;;;;;11.77;7.18;;;12.50;99.90;;;;;;4960522;28;20046;-84
2022/06/02 06:58:03;;;;;;;12.02;7.10;;;12.60;99.90;;;;;;4976598;28;20042;-84
2022/06/02 07:00:37;;;;;;;16.40;8.85;;;12.70;99.90;;;;;;4976831;28;20050;-84
2022/06/02 07:03:27;;;;;;;12.43;7.55;;;12.70;99.90;;;;;;4976525;28;20054;-84
2022/06/02 07:05:59;;;;;;;14.73;7.72;;;12.80;99.90;;;;;;4976808;28;20045;-85
2022/06/02 07:08:33;;;;;;;11.13;5.38;;;12.90;99.90;;;;;;4976337;28;20092;-84
2022/06/02 07:11:01;;;;;;;7.72;4.03;;;13.00;99.90;;;;;;4976368;28;20061;-85
2022/06/02 07:13:50;;;;;;;9.70;4.97;;;13.10;99.90;;;;;;4976570;28;20042;-84
2022/06/02 07:16:45;;;;;;;9.13;5.00;;;13.20;99.90;;;;;;4976385;28;20046;-84
2022/06/02 07:19:40;;;;;;;10.43;4.72;;;13.30;99.90;;;;;;4976388;28;20054;-84
2022/06/02 07:22:16;;;;;;;8.32;3.95;;;13.40;99.90;;;;;;4960238;28;20078;-84
2022/06/02 07:24:54;;;;;;;9.13;5.78;;;13.50;99.90;;;;;;4960002;28;20491;-84
2022/06/02 07:27:40;;;;;;;10.55;5.40;;;13.60;99.90;;;;;;4976156;28;20132;-84
2022/06/02 07:30:33;;;;;;;9.55;5.07;;;13.60;99.90;;;;;;4976196;28;20045;-84
2022/06/02 07:33:37;;;;;;;9.02;4.05;;;13.70;99.90;;;;;;4975935;28;20040;-84
2022/06/02 07:36:41;;;;;;;9.18;4.45;;;13.80;99.90;;;;;;4976119;28;20403;-84
2022/06/02 07:39:24;;;;;;;9.65;4.22;;;13.70;99.90;;;;;;4975374;28;20042;-84
2022/06/02 07:41:59;;;;;;;;;;;13.70;99.90;;;;;;4976330;28;20467;-84
2022/06/02 07:45:03;;;;;;;8.02;4.38;;;13.60;99.90;;;;;;4976157;28;20006;-84
2022/06/02 07:47:50;;;;;;;7.95;3.92;;;13.80;99.90;;;;;;4959415;28;20097;-84
2022/06/02 07:50:22;;;;;;;9.65;5.40;;;13.80;99.90;;;;;;4975994;28;20046;-83
2022/06/02 07:53:12;;;;;;;9.45;4.32;;;13.90;99.90;;;;;;4976063;28;20488;-84
2022/06/02 07:56:09;;;;;;;8.40;3.90;;;14.00;99.90;;;;;;4975699;28;20467;-84
2022/06/02 07:59:06;;;;;;;7.43;3.05;;;14.20;99.90;;;;;;4975307;28;20078;-84
2022/06/02 08:02:03;;;;;;;8.10;3.10;;;14.30;99.90;;;;;;4959266;28;20053;-84
2022/06/02 08:04:49;;;;;;;9.25;3.78;;;14.40;99.90;;;;;;4975762;28;20034;-85
2022/06/02 08:07:28;;;;;;;7.35;3.08;;;14.30;99.90;;;;;;4959488;28;20141;-84
2022/06/02 08:10:45;;;;;;;7.38;3.38;;;14.30;99.90;;;;;;4959086;28;20117;-84
2022/06/02 08:13:33;;;;;;;9.50;4.38;;;14.40;99.90;;;;;;4895684;29;20469;-84
2022/06/02 08:16:16;;;;;;;8.10;3.88;;;14.40;99.90;;;;;;4897944;29;20051;-84
2022/06/02 08:19:03;;;;;;;7.75;3.28;;;14.40;99.90;;;;;;4897541;29;20194;-84
2022/06/02 08:21:53;;;;;;;7.18;3.22;;;14.50;99.90;;;;;;4897907;29;20525;-84
2022/06/02 08:24:46;;;;;;;9.00;3.40;;;14.60;99.90;;;;;;4897486;29;20053;-84
2022/06/02 08:27:39;;;;;;;7.22;3.17;;;14.70;99.90;;;;;;4897784;29;20044;-85
2022/06/02 08:30:35;;;;;;;8.13;3.22;;;14.70;99.90;;;;;;4897711;29;20059;-85
2022/06/02 08:33:06;;;;;;;7.95;3.63;;;14.70;99.90;;;;;;4897580;29;20513;-85
2022/06/02 08:36:04;;;;;;;7.10;3.30;;;14.90;99.90;;;;;;4913242;29;20429;-85
2022/06/02 08:38:49;;;;;;;7.85;3.67;;;15.00;99.90;;;;;;4897243;29;20174;-84
2022/06/02 08:41:41;;;;;;;7.55;3.50;;;15.20;99.90;;;;;;4897536;29;20044;-84
2022/06/02 08:44:23;;;;;;;7.75;3.47;;;15.20;99.90;;;;;;4913274;29;20104;-85
2022/06/02 08:47:09;;;;;;;7.05;3.08;;;15.20;99.90;;;;;;4897325;29;20095;-85
2022/06/02 08:49:56;;;;;;;7.70;2.95;;;15.30;99.90;;;;;;4951373;28;20046;-85
2022/06/02 08:52:46;;;;;;;8.63;3.22;;;15.40;99.90;;;;;;4974379;28;20073;-84
2022/06/02 08:55:40;;;;;;;7.65;3.30;;;15.40;99.90;;;;;;4974698;28;20638;-84
2022/06/02 08:58:23;;;;;;;7.05;2.75;;;15.40;99.90;;;;;;4974796;28;20440;-84
2022/06/02 09:01:01;;;;;;;6.68;2.80;;;15.30;99.90;;;;;;4974504;28;20381;-84
2022/06/02 09:04:04;;;;;;;7.47;3.72;;;15.50;99.90;;;;;;4974946;28;20436;-85
2022/06/02 09:06:55;;;;;;;6.70;3.10;;;15.70;99.90;;;;;;4974766;28;20041;-85
2022/06/02 09:09:44;;;;;;;7.60;2.90;;;15.70;99.90;;;;;;4991505;28;20038;-85
2022/06/02 09:12:13;;;;;;;6.82;2.90;;;15.70;99.90;;;;;;4974783;28;20053;-84
2022/06/02 09:15:25;;;;;;;9.00;3.00;;;15.70;99.90;;;;;;4974998;28;20065;-85
2022/06/02 09:17:59;;;;;;;7.40;2.80;;;15.80;99.90;;;;;;4974386;28;20052;-84
2022/06/02 09:20:34;;;;;;;7.00;3.08;;;15.90;99.90;;;;;;4990808;28;20061;-84
2022/06/02 09:23:13;;;;;;;8.90;3.60;;;16.00;99.90;;;;;;4974342;28;20049;-85
2022/06/02 09:26:14;;;;;;;6.35;2.95;;;16.10;99.90;;;;;;4974952;28;20043;-85
2022/06/02 09:29:06;;;;;;;7.93;3.42;;;16.20;99.90;;;;;;4957269;28;20038;-84
2022/06/02 09:31:59;;;;;;;7.00;2.80;;;16.20;99.90;;;;;;4972515;28;20050;-84
2022/06/02 09:34:37;;;;;;;7.82;3.10;;;16.10;99.90;;;;;;4969039;28;20137;-84
2022/06/02 09:37:32;;;;;;;7.15;2.85;;;16.00;99.90;;;;;;4973280;28;20500;-84
2022/06/02 09:40:20;;;;;;;6.85;3.10;;;16.00;99.90;;;;;;4970842;28;20393;-84
2022/06/02 09:43:11;;;;;;;5.70;2.53;;;16.20;99.90;;;;;;4971701;28;20050;-84
2022/06/02 09:46:27;;;;;;;5.40;2.20;;;16.20;99.90;;;;;;4972458;28;20030;-84
2022/06/02 09:49:35;;;;;;;6.95;3.03;;;16.30;99.90;;;;;;4943635;28;20090;-84
2022/06/02 09:52:28;;;;;;;8.25;3.03;;;16.40;99.90;;;;;;4925919;28;20054;-84
2022/06/02 09:55:24;;;;;;;7.18;3.10;;;16.50;99.90;;;;;;4970919;28;20042;-85
2022/06/02 09:58:14;;;;;;;7.00;2.80;;;16.40;99.90;;;;;;4990021;28;20447;-85
2022/06/02 10:00:39;;;;;;;6.95;2.80;;;16.30;99.90;;;;;;4971962;28;20038;-84
2022/06/02 10:03:38;;;;;;;7.43;2.70;;;16.30;99.90;;;;;;4972408;28;20088;-84
2022/06/02 10:06:30;;;;;;;6.60;2.88;;;16.30;99.90;;;;;;4977254;28;20042;-84
2022/06/02 10:09:22;;;;;;;7.03;2.70;;;16.40;99.90;;;;;;4977113;28;20049;-84
2022/06/02 10:15:23;;;;;;;6.82;2.63;;;16.40;99.90;;;;;;4977332;28;20054;-84
2022/06/02 10:17:58;;;;;;;6.53;2.30;;;16.50;99.90;;;;;;4977140;28;20096;-84
2022/06/02 10:20:56;;;;;;;5.43;2.00;;;16.70;99.90;;;;;;4977120;28;20069;-84
2022/06/02 10:23:50;;;;;;;5.80;2.13;;;16.80;99.90;;;;;;4969925;28;20034;-84
2022/06/02 10:26:32;;;;;;;5.93;2.28;;;17.00;99.90;;;;;;4977200;28;20042;-84
2022/06/02 10:29:03;;;;;;;5.30;2.17;;;17.20;99.90;;;;;;4977097;28;20045;-84
2022/06/02 10:32:07;;;;;;;5.68;2.10;;;17.40;99.90;;;;;;4977246;28;20089;-84
2022/06/02 10:34:50;;;;;;;4.93;1.95;;;17.50;99.90;;;;;;4977506;28;20129;-84
2022/06/02 10:37:27;;;;;;;5.55;1.80;;;17.60;98.80;;;;;;4960812;28;20542;-84
2022/06/02 10:40:14;;;;;;;4.65;1.67;;;17.50;96.10;;;;;;4977138;28;20385;-84
2022/06/02 10:43:18;;;;;;;6.65;2.50;;;17.60;96.60;;;;;;4977717;28;20069;-84
2022/06/02 10:46:30;;;;;;;6.88;2.55;;;17.70;96.10;;;;;;4976977;28;20042;-84
2022/06/02 10:49:03;;;;;;;6.35;2.10;;;17.60;96.60;;;;;;4976636;28;20130;-84
2022/06/02 10:52:02;;;;;;;6.45;2.40;;;17.60;97.50;;;;;;4976854;28;20057;-85
2022/06/02 10:54:39;;;;;;;5.50;2.35;;;17.70;99.10;;;;;;4961170;28;20400;-85
2022/06/02 10:57:26;;;;;;;5.95;2.22;;;17.70;97.60;;;;;;4976849;28;20166;-85
2022/06/02 11:00:24;;;;;;;8.00;2.28;;;17.90;99.90;;;;;;4976547;28;20415;-85
2022/06/02 11:02:59;;;;;;;6.70;2.50;;;18.00;97.40;;;;;;4960201;28;20129;-85
2022/06/02 11:05:55;;;;;;;4.95;2.13;;;17.80;96.40;;;;;;4976510;28;20495;-84
2022/06/02 11:08:36;;;;;;;5.90;2.30;;;17.90;96.90;;;;;;4976013;28;20042;-85
2022/06/02 11:11:39;;;;;;;5.20;2.20;;;17.90;97.40;;;;;;4960109;28;20451;-85
2022/06/02 11:14:22;;;;;;;4.10;1.85;;;18.00;94.80;;;;;;4976340;28;20496;-85
2022/06/02 11:17:03;;;;;;;4.70;2.10;;;18.10;97.90;;;;;;4976397;28;20054;-85
2022/06/02 11:19:28;;;;;;;6.50;2.40;;;18.10;98.40;;;;;;4976077;28;20085;-85
2022/06/02 11:22:19;;;;;;;5.53;2.20;;;18.10;99.00;;;;;;4976070;28;20088;-85
2022/06/02 11:25:13;;;;;;;5.63;2.20;;;18.20;98.80;;;;;;4976362;28;20116;-85
2022/06/02 11:28:03;;;;;;;4.13;1.90;;;18.30;95.80;;;;;;4976253;28;20568;-84
2022/06/02 11:30:41;;;;;;;5.95;2.22;;;18.30;93.80;;;;;;4976156;28;20407;-85
2022/06/02 11:33:22;;;;;;;4.07;1.90;;;18.40;93.40;;;;;;4976158;28;20054;-84
2022/06/02 11:36:05;;;;;;;5.82;2.30;;;18.50;91.70;;;;;;4993355;28;20039;-84
2022/06/02 11:39:13;;;;;;;5.75;1.77;;;18.60;94.20;;;;;;4959658;28;20503;-84
2022/06/02 11:42:11;;;;;;;4.25;1.90;;;18.60;89.10;;;;;;4975990;28;20052;-85
2022/06/02 11:44:49;;;;;;;4.72;1.80;;;18.70;92.00;;;;;;4975687;28;20038;-84
2022/06/02 11:47:24;;;;;;;4.93;1.60;;;18.80;92.40;;;;;;4975895;28;20126;-85
2022/06/02 11:50:30;;;;;;;7.20;2.13;;;19.00;92.70;;;;;;4975522;28;20038;-85
2022/06/02 11:53:26;;;;;;;4.18;1.70;;;19.10;94.30;;;;;;4975727;28;20100;-85
2022/06/02 11:56:04;;;;;;;4.65;1.48;;;19.30;95.30;;;;;;4975670;28;20570;-84
2022/06/02 11:59:02;;;;;;;4.18;1.73;;;19.40;95.40;;;;;;4975206;28;20089;-85
2022/06/02 12:02:03;;;;;;;6.70;2.22;;;19.50;94.70;;;;;;4933447;28;20050;-85
2022/06/02 12:04:53;;;;;;;5.75;2.00;;;19.30;94.80;;;;;;4951114;28;20341;-85
2022/06/02 12:07:49;;;;;;;5.90;1.73;;;19.30;92.10;;;;;;4975564;28;20046;-85
2022/06/02 12:10:52;;;;;;;5.40;1.92;;;19.10;87.70;;;;;;4958752;28;20045;-84
2022/06/02 12:13:44;;;;;;;6.15;1.73;;;19.00;95.00;;;;;;4975308;28;20050;-85
2022/06/02 12:16:39;;;;;;;3.97;1.70;;;18.90;96.60;;;;;;4975446;28;20411;-85
2022/06/02 12:19:25;;;;;;;4.38;1.60;;;18.90;93.10;;;;;;4975056;28;20042;-85
2022/06/02 12:22:26;;;;;;;3.97;1.70;;;18.90;90.80;;;;;;4958996;28;20038;-85
2022/06/02 12:25:08;;;;;;;3.35;1.70;;;18.90;84.90;;;;;;4975473;28;20096;-85
2022/06/02 12:27:40;;;;;;;;;;;18.90;82.30;;;;;;4975132;28;20035;-84
2022/06/02 12:30:06;;;;;;;3.53;1.40;;;18.90;87.20;;;;;;4975442;28;20315;-86
2022/06/02 12:32:55;;;;;;;3.67;1.48;;;19.10;89.00;;;;;;4975125;28;20053;-85
2022/06/02 12:35:47;;;;;;;7.22;1.90;;;19.30;84.20;;;;;;4974867;28;20151;-85
2022/06/02 12:38:22;;;;;;;3.95;1.50;;;19.50;84.00;;;;;;4974822;28;20503;-85
2022/06/02 12:41:11;;;;;;;7.30;1.90;;;19.70;94.90;;;;;;4974951;28;20381;-85
2022/06/02 12:43:51;;;;;;;5.30;1.95;;;19.80;97.90;;;;;;4974649;28;20043;-85
2022/06/02 12:46:49;;;;;;;5.13;1.83;;;20.00;90.70;;;;;;4975256;28;20507;-86
2022/06/02 12:49:33;;;;;;;4.90;1.50;;;20.10;91.00;;;;;;4974458;28;20065;-86
2022/06/02 12:52:22;;;;;;;5.45;1.90;;;20.20;83.70;;;;;;4974544;28;20046;-85
2022/06/02 12:55:21;;;;;;;5.15;1.65;;;20.30;83.60;;;;;;4974937;28;20049;-85
2022/06/02 12:58:21;;;;;;;4.72;1.55;;;20.40;81.70;;;;;;4974358;28;20049;-85
2022/06/02 13:01:23;;;;;;;4.65;1.50;;;20.50;83.50;;;;;;4974456;28;20038;-85
2022/06/02 13:04:07;;;;;;;3.28;1.40;;;20.60;83.50;;;;;;4973316;28;20104;-85
2022/06/02 13:06:50;;;;;;;4.32;1.30;;;20.70;77.30;;;;;;4973683;28;20048;-85
2022/06/02 13:09:30;;;;;;;3.88;1.40;;;20.70;68.70;;;;;;4957405;28;20400;-85
2022/06/02 13:12:28;;;;;;;4.22;1.35;;;20.70;71.30;;;;;;4971536;28;20034;-85
2022/06/02 13:15:09;;;;;;;4.60;1.30;;;20.80;75.10;;;;;;4974885;28;20520;-86
2022/06/02 13:18:06;;;;;;;2.70;1.30;;;21.10;78.30;;;;;;4974406;28;20054;-85
2022/06/02 13:20:53;;;;;;;5.25;1.20;;;21.30;70.50;;;;;;4965164;28;20065;-85
2022/06/02 13:23:36;;;;;;;2.42;0.98;;;21.40;67.30;;;;;;4974507;28;20045;-86
2022/06/02 13:26:29;;;;;;;2.17;0.90;;;21.50;67.20;;;;;;4958524;28;20397;-86
2022/06/02 13:29:17;;;;;;;3.28;1.20;;;21.50;63.70;;;;;;4973989;28;20100;-85
2022/06/02 13:32:34;;;;;;;3.60;1.13;;;21.60;65.50;;;;;;4974790;28;20500;-85
2022/06/02 13:35:40;;;;;;;4.75;1.30;;;21.70;71.90;;;;;;4932232;28;20058;-86
2022/06/02 13:38:18;;;;;;;4.43;1.25;;;22.10;79.50;;;;;;4974447;28;20053;-85
2022/06/02 13:41:16;;;;;;;1.77;0.98;;;22.30;74.20;;;;;;4961893;28;20045;-85
2022/06/02 13:44:02;;;;;;;3.88;1.23;;;22.40;69.60;;;;;;4911605;28;20085;-86
2022/06/02 13:47:00;;;;;;;3.90;1.30;;;22.50;68.80;;;;;;4977838;28;20124;-85
2022/06/02 13:50:03;;;;;;;3.70;1.23;;;22.60;68.50;;;;;;4976897;28;20302;-85
2022/06/02 13:52:47;;;;;;;4.57;1.20;;;22.60;65.50;;;;;;4993402;28;20034;-86
2022/06/02 13:58:39;;;;;;;4.88;1.30;;;22.60;66.90;;;;;;4974834;28;20050;-86
2022/06/02 14:01:08;;;;;;;;;;;22.80;67.50;;;;;;4976892;28;20579;-86
2022/06/02 14:03:58;;;;;;;2.75;1.10;;;22.80;66.20;;;;;;4975303;28;19972;-86
2022/06/02 14:06:25;;;;;;;3.35;1.20;;;22.90;63.40;;;;;;4977679;28;20531;-86
2022/06/02 14:09:13;;;;;;;2.85;1.20;;;22.90;62.10;;;;;;4977473;28;20050;-86
2022/06/02 14:12:16;;;;;;;3.42;1.20;;;22.90;61.50;;;;;;4977373;28;20049;-85
2022/06/02 14:15:04;;;;;;;5.93;1.20;;;22.60;64.20;;;;;;4977953;28;20566;-85
2022/06/02 14:18:02;;;;;;;2.78;1.20;;;22.70;64.80;;;;;;4977402;28;20069;-86
2022/06/02 14:20:28;;;;;;;3.10;1.25;;;22.70;65.80;;;;;;4960954;28;20439;-85
2022/06/02 14:23:21;;;;;;;4.97;1.13;;;22.70;65.80;;;;;;4993727;28;20049;-86
2022/06/02 14:25:57;;;;;;;2.63;1.20;;;22.90;66.70;;;;;;4977474;28;20496;-86
2022/06/02 14:28:55;;;;;;;3.53;1.17;;;23.00;65.00;;;;;;5009743;28;20034;-86
2022/06/02 14:31:32;;;;;;;2.63;1.15;;;23.00;60.80;;;;;;4993918;28;20053;-85
2022/06/02 14:34:22;;;;;;;4.30;1.20;;;22.90;58.80;;;;;;4977055;28;20046;-86
2022/06/02 14:37:02;;;;;;;3.47;1.20;;;22.80;58.00;;;;;;4977483;28;20069;-86
2022/06/02 14:39:44;;;;;;;6.60;1.75;;;22.80;59.70;;;;;;4993105;28;20088;-85
2022/06/02 14:45:30;;;;;;;3.20;1.15;;;22.80;60.70;;;;;;5009760;28;20046;-86